Flight Track Log - Related Links

Times and Time Zones

All times are in EDT time to prevent confusion due to time zone crossing. See the SWA407 flight status page for this flight to view local times or setup timezone preferences in your user account.

Time Position Orientation Groundspeed Altitude Reporting Facility
EDT Latitude Longitude Course Direction KTS MPH feet Rate Location/Type
Sun 01:21:49 PM 36.1000 -86.6833 180° South 144 166 1,300  Level Nashville TRACON
Sun 01:22:19 PM 36.0833 -86.6833 180° South 151 174 2,600 2,533 Climbing Nashville TRACON
Sun 01:23:19 PM 36.0333 -86.6667 165° South 240 276 5,100 2,876 Climbing Nashville TRACON
Sun 01:25:08 PM 35.9075 -86.5922 154° Southeast 311 358 10,700 2,876 Climbing Memphis Center
Sun 01:26:08 PM 35.8244 -86.5347 151° Southeast 326 375 13,200 3,150 Climbing Memphis Center
Sun 01:27:08 PM 35.7306 -86.4700 151° Southeast 345 397 17,000 3,184 Climbing Memphis Center
Sun 01:29:07 PM 35.5283 -86.4172 168° South 391 450 22,700 2,715 Climbing Atlanta Center
Sun 01:30:07 PM 35.4161 -86.3936 170° South 405 466 25,100 2,250 Climbing Atlanta Center
Sun 01:31:07 PM 35.3064 -86.3472 161° South 411 473 27,200 1,850 Climbing Atlanta Center
Sun 01:32:07 PM 35.2053 -86.2908 155° Southeast 429 494 28,800 1,866 Climbing Atlanta Center
Sun 01:33:06 PM 35.0814 -86.2242 156° South 434 499 30,900 2,000 Climbing Atlanta Center
Sun 01:34:07 PM 34.9614 -86.1650 158° South 454 522 32,800 1,934 Climbing Atlanta Center
Sun 01:35:07 PM 34.8433 -86.1167 161° South 454 522 34,800 1,664 Climbing Atlanta Center
Sun 01:36:06 PM 34.7481 -86.0739 160° South 454 522 36,100 1,200 Climbing Atlanta Center
Sun 01:37:07 PM 34.6214 -86.0203 161° South 449 517 37,200 1,300 Climbing Atlanta Center
Sun 01:38:06 PM 34.4992 -85.9694 161° South 449 517 38,700 900 Climbing Atlanta Center
Sun 01:39:07 PM 34.3831 -85.9192 160° South 449 517 39,000 149 Climbing Atlanta Center
Sun 01:40:07 PM 34.2647 -85.8711 161° South 449 517 39,000  Level Atlanta Center
Sun 01:41:06 PM 34.1486 -85.8208 160° South 444 511 39,000  Level Atlanta Center
Sun 01:42:06 PM 34.0222 -85.7731 163° South 437 503 39,000  Level Atlanta Center
Sun 01:43:07 PM 33.9081 -85.7258 161° South 437 503 39,000  Level Atlanta Center
Sun 01:44:07 PM 33.7917 -85.6761 160° South 437 503 39,000  Level Atlanta Center
Sun 01:45:06 PM 33.6775 -85.6289 161° South 443 510 39,000  Level Atlanta Center
Sun 01:46:07 PM 33.5614 -85.5819 161° South 443 510 39,000  Level Atlanta Center
Sun 01:47:06 PM 33.4428 -85.5325 161° South 443 510 39,000  Level Atlanta Center
Sun 01:48:06 PM 33.3369 -85.4883 161° South 443 510 39,000  Level Atlanta Center
Sun 01:49:06 PM 33.2228 -85.4419 161° South 443 510 39,000  Level Atlanta Center
Sun 01:50:06 PM 33.1064 -85.3928 161° South 443 510 39,000  Level Atlanta Center
Sun 01:51:06 PM 32.9775 -85.3314 158° South 448 516 39,000  Level Atlanta Center
Sun 01:52:06 PM 32.8611 -85.2878 163° South 442 509 39,000  Level Atlanta Center
Sun 01:53:07 PM 32.7406 -85.2367 160° South 447 514 39,000  Level Atlanta Center
Sun 01:54:06 PM 32.6200 -85.1906 162° South 452 520 39,000  Level Atlanta Center
Sun 01:55:06 PM 32.5036 -85.1422 161° South 452 520 39,000  Level Atlanta Center
Sun 01:56:06 PM 32.3953 -85.0967 160° South 458 527 39,000  Level Atlanta Center
Sun 01:58:15 PM 32.1344 -84.9950 162° South 484 557 39,000  Level Jacksonville Center
Sun 01:59:15 PM 32.0206 -84.9483 161° South 462 532 39,000  Level Jacksonville Center
Sun 02:00:15 PM 31.9000 -84.9017 162° South 456 525 39,000  Level Jacksonville Center
Sun 02:01:15 PM 31.7714 -84.8525 162° South 449 517 39,000  Level Jacksonville Center
Sun 02:02:15 PM 31.6531 -84.8061 162° South 444 511 39,000  Level Jacksonville Center
Sun 02:03:15 PM 31.5328 -84.7572 161° South 444 511 39,000  Level Jacksonville Center
Sun 02:04:15 PM 31.4144 -84.7111 162° South 450 518 39,000  Level Jacksonville Center
Sun 02:05:15 PM 31.2939 -84.6650 162° South 455 524 39,000  Level Jacksonville Center
Sun 02:06:15 PM 31.1750 -84.6603 178° South 436 502 39,000  Level Jacksonville Center
Sun 02:07:15 PM 31.0558 -84.6800 188° South 436 502 39,000 -300 Level Jacksonville Center
Sun 02:09:15 PM 30.8225 -84.6439 172° South 431 496 38,100 -633 Descending Jacksonville Center
Sun 02:10:15 PM 30.7150 -84.5647 148° Southeast 432 497 37,100 -950 Descending Jacksonville Center
Sun 02:11:15 PM 30.6031 -84.4831 148° Southeast 443 510 36,200 -950 Descending Jacksonville Center
Sun 02:12:15 PM 30.4956 -84.3994 146° Southeast 460 529 35,200 -600 Descending Jacksonville Center
Sun 02:13:15 PM 30.3881 -84.3181 147° Southeast 467 537 35,000 -100 Descending Jacksonville Center
Sun 02:14:15 PM 30.2864 -84.2419 147° Southeast 462 532 35,000  Level Jacksonville Center
Sun 02:15:15 PM 30.1933 -84.1736 148° Southeast 448 516 35,000  Level Jacksonville Center
Sun 02:16:15 PM 30.0875 -84.0928 147° Southeast 443 510 35,000  Level Jacksonville Center
Sun 02:17:15 PM 29.9839 -84.0147 147° Southeast 448 516 35,000  Level Jacksonville Center
Sun 02:18:15 PM 29.8781 -83.9369 147° Southeast 448 516 35,000  Level Jacksonville Center
Sun 02:19:15 PM 29.7722 -83.8642 149° Southeast 448 516 35,000  Level Jacksonville Center
Sun 02:20:15 PM 29.6642 -83.7961 151° Southeast 448 516 35,000 -650 Level Jacksonville Center
Sun 02:21:15 PM 29.5561 -83.7258 150° Southeast 448 516 33,700 -1,800 Descending Jacksonville Center
Sun 02:22:15 PM 29.4481 -83.6558 151° Southeast 448 516 31,400 -2,300 Descending Jacksonville Center
Sun 02:23:15 PM 29.3336 -83.5833 151° Southeast 438 504 29,100 -2,150 Descending Jacksonville Center
Sun 02:24:15 PM 29.2358 -83.5208 151° Southeast 428 493 27,100 -1,350 Descending Jacksonville Center
Sun 02:25:15 PM 29.1400 -83.4583 150° Southeast 407 468 26,400 -843 Descending Jacksonville Center
Sun 02:26:16 PM 29.0422 -83.3961 151° Southeast 402 463 25,400 -1,350 Descending Jacksonville Center
Sun 02:27:15 PM 28.9464 -83.3339 150° Southeast 395 455 23,700 -1,815 Descending Jacksonville Center
Sun 02:28:15 PM 28.8547 -83.2789 152° Southeast 395 455 21,800 -1,850 Descending Jacksonville Center
Sun 02:29:15 PM 28.7694 -83.2242 151° Southeast 384 442 20,000 -1,800 Descending Jacksonville Center
Sun 02:30:15 PM 28.6839 -83.1694 151° Southeast 368 423 18,200 -1,683 Descending Jacksonville Center
Sun 02:31:59 PM 28.5500 -83.0833 151° Southeast 338 389 15,400 -1,683 Descending Tampa TRACON
Sun 02:32:59 PM 28.4667 -83.0333 152° Southeast 331 381 13,600 -1,587 Descending Tampa TRACON
Sun 02:34:00 PM 28.3833 -82.9833 152° Southeast 313 360 12,200 -1,476 Descending Tampa TRACON
Sun 02:35:05 PM 28.3000 -82.9333 152° Southeast 301 346 10,500 -1,488 Descending Tampa TRACON
Sun 02:36:05 PM 28.2667 -82.8500 114° Southeast 293 337 9,100 -1,350 Descending Tampa TRACON
Sun 02:37:05 PM 28.2833 -82.7667 77° East 284 327 7,800 -1,304 Descending Tampa TRACON
Sun 02:38:00 PM 28.2833 -82.6833 90° East 271 312 6,600 -1,632 Descending Tampa TRACON
Sun 02:38:59 PM 28.2333 -82.6167 130° Southeast 266 306 4,700 -1,842 Descending Tampa TRACON
Sun 02:39:54 PM 28.1833 -82.5667 139° Southeast 262 302 3,100 -939 Descending Tampa TRACON
Sun 02:40:54 PM 28.1333 -82.5167 139° Southeast 201 231 2,900 -550 Descending Tampa TRACON
Sun 02:41:54 PM 28.0833 -82.5333 196° South 183 211 2,000 -900 Descending Tampa TRACON

Login

Don't have an account? Register now (free) for customized features, flight alerts, and more!